Time;durP1;ratioP1;P1;durP2;ratioP2;P2;SDS_P1;SDS_P2;PMS_P1;PMS_P2;Temp;Humidity;BMP_temperature;BMP_pressure;BME280_temperature;BME280_humidity;BME280_pressure;Samples;Min_cycle;Max_cycle;Signal;HPM_P1;HPM_P2
2021/12/02 00:00:58;;;;;;;40.47;15.75;;;6.30;99.90;;;;;;5032859;28;20102;-72
2021/12/02 00:03:24;;;;;;;100.68;28.95;;;6.30;99.90;;;;;;5032727;28;20033;-71
2021/12/02 00:05:50;;;;;;;67.95;24.75;;;6.20;99.90;;;;;;5032569;28;20036;-72
2021/12/02 00:08:16;;;;;;;64.43;24.60;;;6.20;99.90;;;;;;5033113;28;20103;-72
2021/12/02 00:10:42;;;;;;;98.57;29.88;;;6.20;99.90;;;;;;5032711;28;20025;-72
2021/12/02 00:13:09;;;;;;;52.03;20.15;;;6.10;99.90;;;;;;5032298;28;20056;-72
2021/12/02 00:15:41;;;;;;;61.47;20.23;;;6.20;99.90;;;;;;5032792;28;20037;-72
2021/12/02 00:23:44;;;;;;;51.08;16.27;;;6.20;99.90;;;;;;5032352;28;20091;-72
2021/12/02 00:26:15;;;;;;;49.45;18.48;;;6.20;99.90;;;;;;5032417;28;20104;-72
2021/12/02 00:28:42;;;;;;;39.07;15.50;;;6.10;99.90;;;;;;5032443;28;20026;-71
2021/12/02 00:31:17;;;;;;;61.40;20.60;;;6.10;99.90;;;;;;5032307;28;20042;-71
2021/12/02 00:33:49;;;;;;;30.23;12.25;;;6.10;99.90;;;;;;5032722;28;20104;-71
2021/12/02 00:36:17;;;;;;;54.80;18.40;;;6.20;99.90;;;;;;5035366;28;20025;-71
2021/12/02 00:38:44;;;;;;;74.57;26.85;;;6.20;99.90;;;;;;5036319;28;20084;-72
2021/12/02 00:41:23;;;;;;;44.30;18.15;;;6.20;99.90;;;;;;5036031;28;20045;-72
2021/12/02 00:43:51;;;;;;;50.97;19.50;;;6.20;99.90;;;;;;5035880;28;20676;-72
2021/12/02 00:46:20;;;;;;;31.58;13.55;;;6.20;99.90;;;;;;5036366;28;20022;-73
2021/12/02 00:48:47;;;;;;;48.60;17.00;;;6.20;99.90;;;;;;5036087;28;20025;-72
2021/12/02 00:51:14;;;;;;;56.58;23.00;;;6.20;99.90;;;;;;5035985;28;20096;-72
2021/12/02 00:53:44;;;;;;;88.85;32.60;;;6.20;99.90;;;;;;5035821;28;20040;-72
2021/12/02 00:56:12;;;;;;;35.35;16.92;;;6.20;99.90;;;;;;5035953;28;20024;-71
2021/12/02 00:58:38;;;;;;;31.65;14.82;;;6.20;99.90;;;;;;5035939;28;20179;-73
2021/12/02 01:01:05;;;;;;;31.83;14.07;;;6.20;99.90;;;;;;5035973;28;20426;-72
2021/12/02 01:03:34;;;;;;;41.17;15.30;;;6.10;99.90;;;;;;5035741;28;20140;-72
2021/12/02 01:06:01;;;;;;;73.60;26.73;;;6.10;99.90;;;;;;5036090;28;20029;-72
2021/12/02 01:08:27;;;;;;;192.02;65.78;;;6.10;99.90;;;;;;5035716;28;20104;-73
2021/12/02 01:10:54;;;;;;;225.55;79.40;;;6.10;99.90;;;;;;5035526;28;20486;-72
2021/12/02 01:13:21;;;;;;;201.55;73.20;;;6.10;99.90;;;;;;5035499;28;20414;-72
2021/12/02 01:15:47;;;;;;;137.35;49.80;;;6.00;99.90;;;;;;5035565;28;20067;-72
2021/12/02 01:18:13;;;;;;;110.97;42.78;;;6.10;99.90;;;;;;5035461;28;20026;-72
2021/12/02 01:20:41;;;;;;;128.52;51.83;;;6.10;99.90;;;;;;5035174;28;20395;-71
2021/12/02 01:23:09;;;;;;;133.43;55.17;;;6.10;99.90;;;;;;5035028;28;20032;-72
2021/12/02 01:25:36;;;;;;;90.30;39.50;;;6.00;99.90;;;;;;5035556;28;20025;-72
2021/12/02 01:28:01;;;;;;;90.13;36.65;;;6.00;99.90;;;;;;5035479;28;20028;-72
2021/12/02 01:30:30;;;;;;;97.63;39.38;;;6.00;99.90;;;;;;5035283;28;20376;-73
2021/12/02 01:33:04;;;;;;;69.65;26.45;;;6.00;99.90;;;;;;5035355;28;20025;-73
2021/12/02 01:35:32;;;;;;;74.07;30.08;;;6.00;99.90;;;;;;5035481;28;20044;-72
2021/12/02 01:37:58;;;;;;;70.80;31.15;;;6.00;99.90;;;;;;5036246;28;20033;-72
2021/12/02 01:40:25;;;;;;;87.68;37.15;;;5.90;99.90;;;;;;5035594;28;20472;-72
2021/12/02 01:42:57;;;;;;;130.88;51.88;;;5.80;99.90;;;;;;5035978;28;20021;-72
2021/12/02 01:45:26;;;;;;;;;;;5.80;99.90;;;;;;5036212;28;20055;-72
2021/12/02 01:47:54;;;;;;;66.38;26.42;;;5.80;99.90;;;;;;5035225;28;19947;-73
2021/12/02 01:50:23;;;;;;;52.65;22.33;;;5.80;99.90;;;;;;5035630;28;20025;-72
2021/12/02 01:53:00;;;;;;;52.85;21.42;;;5.70;99.90;;;;;;5035808;28;20057;-72
2021/12/02 01:55:27;;;;;;;59.38;24.38;;;5.70;99.90;;;;;;5035963;28;20022;-72
2021/12/02 01:57:59;;;;;;;57.63;23.92;;;5.70;99.90;;;;;;5035608;28;20037;-72
2021/12/02 02:00:33;;;;;;;;;;;5.70;99.90;;;;;;5035740;28;20026;-72
2021/12/02 02:03:01;;;;;;;56.13;24.20;;;5.70;99.90;;;;;;5035143;28;20299;-72
2021/12/02 02:05:28;;;;;;;58.80;24.67;;;5.60;99.90;;;;;;5035055;28;20026;-72
2021/12/02 02:08:03;;;;;;;44.53;20.48;;;5.60;99.90;;;;;;5035381;28;20017;-72
2021/12/02 02:10:33;;;;;;;40.10;17.95;;;5.70;99.90;;;;;;5035034;28;20026;-72
2021/12/02 02:13:03;;;;;;;45.55;18.38;;;5.70;99.90;;;;;;5035345;28;20028;-72
2021/12/02 02:15:30;;;;;;;37.03;14.77;;;5.70;99.90;;;;;;5035132;28;20156;-72
2021/12/02 02:18:02;;;;;;;31.65;13.00;;;5.70;99.90;;;;;;5035076;28;20547;-73
2021/12/02 02:20:48;;;;;;;30.33;12.05;;;5.80;99.90;;;;;;5034704;28;20452;-72
2021/12/02 02:23:14;;;;;;;21.20;9.50;;;5.80;99.90;;;;;;5035165;28;20068;-72
2021/12/02 02:25:45;;;;;;;30.02;12.85;;;5.90;99.90;;;;;;5034593;28;20032;-72
2021/12/02 02:28:11;;;;;;;23.25;9.35;;;5.90;99.90;;;;;;5034533;28;20021;-72
2021/12/02 02:30:38;;;;;;;20.40;7.40;;;5.90;99.90;;;;;;5035130;28;20032;-72
2021/12/02 02:33:04;;;;;;;16.05;7.03;;;5.90;99.90;;;;;;5034844;28;20106;-72
2021/12/02 02:35:29;;;;;;;17.80;7.57;;;5.90;99.90;;;;;;5034704;28;20068;-72
2021/12/02 02:37:55;;;;;;;16.83;8.10;;;5.90;99.90;;;;;;5034499;28;20026;-71
2021/12/02 02:40:23;;;;;;;19.20;9.02;;;6.00;99.90;;;;;;5034256;28;20092;-71
2021/12/02 02:42:56;;;;;;;19.70;8.25;;;6.00;99.90;;;;;;5034103;28;20033;-72
2021/12/02 02:45:22;;;;;;;23.95;9.48;;;6.00;99.90;;;;;;5034275;28;20034;-72
2021/12/02 02:47:47;;;;;;;23.63;9.07;;;6.00;99.90;;;;;;5034288;28;20404;-72
2021/12/02 02:50:15;;;;;;;19.88;9.48;;;6.00;99.90;;;;;;5034538;28;20025;-72
2021/12/02 02:52:42;;;;;;;22.30;10.18;;;6.00;99.90;;;;;;5034447;28;20056;-72
2021/12/02 02:55:11;;;;;;;22.75;9.38;;;6.00;99.90;;;;;;5034205;28;20523;-72
2021/12/02 02:57:49;;;;;;;22.52;10.10;;;6.00;99.90;;;;;;5034492;28;20112;-72
2021/12/02 03:00:20;;;;;;;21.42;8.98;;;6.00;99.90;;;;;;5033209;28;20082;-72
2021/12/02 03:03:02;;;;;;;23.80;10.77;;;6.00;99.90;;;;;;5034292;28;20037;-72
2021/12/02 03:05:43;;;;;;;24.98;10.30;;;6.00;99.90;;;;;;5034366;28;20452;-72
2021/12/02 03:08:13;;;;;;;32.25;16.95;;;5.90;99.90;;;;;;5034121;28;20029;-72
2021/12/02 03:10:50;;;;;;;33.20;13.75;;;5.90;99.90;;;;;;5034254;28;20063;-72
2021/12/02 03:13:34;;;;;;;29.83;11.40;;;5.90;99.90;;;;;;5034118;28;20511;-72
2021/12/02 03:18:44;;;;;;;31.27;12.07;;;5.90;99.90;;;;;;5033929;28;20420;-72
2021/12/02 03:21:29;;;;;;;31.23;11.32;;;5.90;99.90;;;;;;5033970;28;20460;-72
2021/12/02 03:23:57;;;;;;;33.65;11.50;;;6.00;99.90;;;;;;5034144;28;20112;-72
2021/12/02 03:26:24;;;;;;;29.95;10.13;;;6.00;99.90;;;;;;5033702;28;20460;-72
2021/12/02 03:28:51;;;;;;;45.92;16.63;;;6.00;99.90;;;;;;5033875;28;20048;-72
2021/12/02 03:31:17;;;;;;;51.88;18.35;;;6.00;99.90;;;;;;5034102;28;20079;-72
2021/12/02 03:33:44;;;;;;;26.48;10.75;;;6.10;99.90;;;;;;5033665;28;20026;-72
2021/12/02 03:36:11;;;;;;;46.88;16.58;;;6.20;99.90;;;;;;5033352;28;20056;-72
2021/12/02 03:38:37;;;;;;;31.70;12.38;;;6.30;99.90;;;;;;5033791;28;20048;-72
2021/12/02 03:41:04;;;;;;;64.25;21.25;;;6.30;99.90;;;;;;5033350;28;20046;-72
2021/12/02 03:43:38;;;;;;;52.22;19.30;;;6.40;99.90;;;;;;5033595;28;20025;-72
2021/12/02 03:46:05;;;;;;;49.33;18.90;;;6.40;99.90;;;;;;5033764;28;20472;-73
2021/12/02 03:48:31;;;;;;;44.25;18.85;;;6.40;99.90;;;;;;5033262;28;20041;-72
2021/12/02 03:50:57;;;;;;;21.88;10.15;;;6.30;99.90;;;;;;5033372;28;20018;-72
2021/12/02 03:53:23;;;;;;;20.08;9.32;;;6.40;99.90;;;;;;5033642;28;20017;-72
2021/12/02 03:55:49;;;;;;;47.35;18.08;;;6.30;99.90;;;;;;5033695;28;20022;-72
2021/12/02 03:58:15;;;;;;;58.92;25.83;;;6.30;99.90;;;;;;5033606;28;20029;-72
2021/12/02 04:00:41;;;;;;;48.25;21.73;;;6.30;99.90;;;;;;5033597;28;20064;-72
2021/12/02 04:03:07;;;;;;;42.25;18.63;;;6.20;99.90;;;;;;5033523;28;20033;-72
2021/12/02 04:05:33;;;;;;;50.30;21.17;;;6.10;99.90;;;;;;5033305;28;20404;-72
2021/12/02 04:07:59;;;;;;;46.15;19.13;;;6.00;99.90;;;;;;5033165;28;20079;-72
2021/12/02 04:10:25;;;;;;;45.85;17.50;;;6.00;99.90;;;;;;5034496;28;20026;-72
2021/12/02 04:15:24;;;;;;;47.20;16.63;;;5.90;99.90;;;;;;5037502;28;20083;-72
2021/12/02 04:17:51;;;;;;;40.63;16.77;;;5.90;99.90;;;;;;5037450;28;20084;-72
2021/12/02 04:20:21;;;;;;;55.28;22.00;;;5.90;99.90;;;;;;5037619;28;20021;-72
2021/12/02 04:22:47;;;;;;;54.47;23.08;;;5.90;99.90;;;;;;5037372;28;20025;-73
2021/12/02 04:25:14;;;;;;;65.97;26.50;;;5.80;99.90;;;;;;5037128;28;20025;-72
2021/12/02 04:27:40;;;;;;;65.40;26.85;;;5.70;99.90;;;;;;5037149;28;20076;-72
2021/12/02 04:30:09;;;;;;;88.10;31.40;;;5.70;99.90;;;;;;5037310;28;20444;-72
2021/12/02 04:32:35;;;;;;;138.35;45.67;;;5.60;99.90;;;;;;5036928;28;20045;-73
2021/12/02 04:35:01;;;;;;;142.60;53.63;;;5.60;99.90;;;;;;5037110;28;20068;-73
2021/12/02 04:37:28;;;;;;;81.10;30.40;;;5.60;99.90;;;;;;5036804;28;20026;-73
2021/12/02 04:39:53;;;;;;;99.50;38.13;;;5.50;99.90;;;;;;5036367;28;20056;-71
2021/12/02 04:42:19;;;;;;;73.30;31.25;;;5.50;99.90;;;;;;5037420;28;20479;-72
2021/12/02 04:44:45;;;;;;;103.90;37.60;;;5.40;99.90;;;;;;5037293;28;20457;-73
2021/12/02 04:47:11;;;;;;;111.22;41.90;;;5.40;99.90;;;;;;5036590;28;20024;-72
2021/12/02 04:49:37;;;;;;;51.55;21.23;;;5.40;99.90;;;;;;5036634;28;20445;-72
2021/12/02 04:52:03;;;;;;;60.60;23.48;;;5.50;99.90;;;;;;5037314;28;20032;-72
2021/12/02 04:54:29;;;;;;;30.63;14.07;;;5.50;99.90;;;;;;5036393;28;20036;-72
2021/12/02 04:56:55;;;;;;;22.67;9.95;;;5.60;99.90;;;;;;5037045;28;20032;-71
2021/12/02 04:59:20;;;;;;;27.40;12.95;;;5.70;99.90;;;;;;5036250;28;20025;-72
2021/12/02 05:01:46;;;;;;;26.38;11.98;;;5.70;99.90;;;;;;5050306;28;20055;-71
2021/12/02 05:04:12;;;;;;;28.42;11.65;;;5.70;99.90;;;;;;5056124;28;20082;-71
2021/12/02 05:06:38;;;;;;;44.25;18.17;;;5.70;99.90;;;;;;5056017;28;20036;-71
2021/12/02 05:09:04;;;;;;;54.15;20.23;;;5.70;99.90;;;;;;5056448;28;20415;-72
2021/12/02 05:11:29;;;;;;;45.17;18.23;;;5.60;99.90;;;;;;5055980;28;20491;-72
2021/12/02 05:13:55;;;;;;;41.10;17.45;;;5.70;99.90;;;;;;5056327;28;20028;-72
2021/12/02 05:16:21;;;;;;;73.28;23.58;;;5.70;99.90;;;;;;5056237;28;20021;-72
2021/12/02 05:18:47;;;;;;;42.33;16.70;;;5.70;99.90;;;;;;5056452;28;20021;-72
2021/12/02 05:21:13;;;;;;;60.80;23.48;;;5.70;99.90;;;;;;5055471;28;20021;-74
2021/12/02 05:23:39;;;;;;;64.85;24.85;;;5.80;99.90;;;;;;5055450;28;20032;-72
2021/12/02 05:26:05;;;;;;;34.28;13.25;;;5.80;99.90;;;;;;5056469;28;20029;-72
2021/12/02 05:28:31;;;;;;;21.25;8.40;;;5.80;99.90;;;;;;5056422;28;20017;-72
2021/12/02 05:30:57;;;;;;;35.55;13.85;;;5.90;99.90;;;;;;5056289;28;20027;-72
2021/12/02 05:33:22;;;;;;;82.28;26.33;;;6.00;99.90;;;;;;5056056;28;20071;-72
2021/12/02 05:35:48;;;;;;;82.53;27.15;;;6.10;99.90;;;;;;5056096;28;20281;-72
2021/12/02 05:38:14;;;;;;;104.60;30.58;;;6.30;99.90;;;;;;5056051;28;20029;-72
2021/12/02 05:40:40;;;;;;;91.88;31.77;;;6.40;99.90;;;;;;5056317;28;20103;-72
2021/12/02 05:43:06;;;;;;;64.15;21.67;;;6.40;99.90;;;;;;5055903;28;20025;-71
2021/12/02 05:45:31;;;;;;;88.55;28.95;;;6.50;99.90;;;;;;5055414;28;20025;-72
2021/12/02 05:47:57;;;;;;;66.75;21.65;;;6.60;99.90;;;;;;5055830;28;20021;-72
2021/12/02 05:50:24;;;;;;;59.35;25.73;;;6.60;99.90;;;;;;5055823;28;20025;-72
2021/12/02 05:52:49;;;;;;;55.22;21.25;;;6.70;99.90;;;;;;5055910;28;20456;-72
2021/12/02 05:55:15;;;;;;;112.40;43.05;;;6.70;99.90;;;;;;5055555;28;20108;-72
2021/12/02 05:57:41;;;;;;;143.05;55.22;;;6.70;99.90;;;;;;5055858;28;20111;-72
2021/12/02 06:00:08;;;;;;;75.38;32.50;;;6.60;99.90;;;;;;5055727;28;20100;-70
2021/12/02 06:02:36;;;;;;;84.47;36.70;;;6.50;99.90;;;;;;5055319;28;20122;-70
2021/12/02 06:05:04;;;;;;;32.15;17.42;;;6.50;99.90;;;;;;5055756;28;20053;-70
2021/12/02 06:07:29;;;;;;;30.95;14.52;;;6.40;99.90;;;;;;5055597;28;20514;-70
2021/12/02 06:09:55;;;;;;;60.67;26.70;;;6.30;99.90;;;;;;5055445;28;20100;-70
2021/12/02 06:12:21;;;;;;;117.90;52.83;;;6.30;99.90;;;;;;5054637;28;20448;-70
2021/12/02 06:14:47;;;;;;;98.80;43.40;;;6.20;99.90;;;;;;5054571;28;20025;-70
2021/12/02 06:17:13;;;;;;;116.50;49.70;;;6.10;99.90;;;;;;5055141;28;20056;-70
2021/12/02 06:19:38;;;;;;;114.93;49.53;;;6.10;99.90;;;;;;5055058;28;20086;-70
2021/12/02 06:22:04;;;;;;;120.00;52.00;;;6.00;99.90;;;;;;5055115;28;20478;-71
2021/12/02 06:24:41;;;;;;;94.97;41.53;;;6.00;99.90;;;;;;5055171;28;20467;-71
2021/12/02 06:27:07;;;;;;;85.85;36.35;;;6.10;99.90;;;;;;5055187;28;20472;-71
2021/12/02 06:29:37;;;;;;;89.05;32.83;;;6.20;99.90;;;;;;5055160;28;20049;-72
2021/12/02 06:32:04;;;;;;;96.10;36.67;;;6.20;99.90;;;;;;5055193;28;20344;-72
2021/12/02 06:34:31;;;;;;;105.78;44.00;;;6.30;99.90;;;;;;5054632;28;20399;-72
2021/12/02 06:36:57;;;;;;;104.50;43.33;;;6.30;99.90;;;;;;5055355;28;20021;-72
2021/12/02 06:39:23;;;;;;;125.50;51.08;;;6.30;99.90;;;;;;5054995;28;20032;-72
2021/12/02 06:41:49;;;;;;;130.75;53.90;;;6.40;99.90;;;;;;5054600;28;20053;-72
2021/12/02 06:44:15;;;;;;;133.10;58.00;;;6.40;99.90;;;;;;5054857;28;20025;-72
2021/12/02 06:46:40;;;;;;;129.95;61.60;;;6.40;99.90;;;;;;5054747;28;20028;-72
2021/12/02 06:49:06;;;;;;;136.73;59.92;;;6.40;99.90;;;;;;5054537;28;20032;-73
2021/12/02 06:51:32;;;;;;;129.18;57.65;;;6.40;99.90;;;;;;5054384;28;20020;-72
2021/12/02 06:53:58;;;;;;;113.15;50.28;;;6.40;99.90;;;;;;5055145;28;20028;-72
2021/12/02 06:56:24;;;;;;;112.43;51.33;;;6.40;99.90;;;;;;5054228;28;20028;-72
2021/12/02 06:58:50;;;;;;;133.75;69.57;;;6.50;99.90;;;;;;5054443;28;20096;-72
2021/12/02 07:01:16;;;;;;;147.25;66.35;;;6.50;99.90;;;;;;5055092;28;20067;-73
2021/12/02 07:03:42;;;;;;;143.02;62.80;;;6.50;99.90;;;;;;5053857;28;20025;-72
2021/12/02 07:06:08;;;;;;;144.98;66.75;;;6.50;99.90;;;;;;5054371;28;20033;-72
2021/12/02 07:08:34;;;;;;;165.00;77.28;;;6.50;99.90;;;;;;5054285;28;20028;-72
2021/12/02 07:11:00;;;;;;;161.95;75.63;;;6.50;99.90;;;;;;5054325;28;20066;-72
2021/12/02 07:13:26;;;;;;;176.88;82.22;;;6.60;99.90;;;;;;5053948;28;20429;-72
2021/12/02 07:15:53;;;;;;;215.68;97.95;;;6.60;99.90;;;;;;5053922;28;20170;-72
2021/12/02 07:18:20;;;;;;;229.20;104.47;;;6.60;99.90;;;;;;5054318;28;20456;-72
2021/12/02 07:20:47;;;;;;;225.82;105.10;;;6.70;99.90;;;;;;5054114;28;20025;-72
2021/12/02 07:23:15;;;;;;;214.73;99.60;;;6.70;99.90;;;;;;5054098;28;20021;-71
2021/12/02 07:25:41;;;;;;;198.10;88.75;;;6.70;99.90;;;;;;5053957;28;20460;-72
2021/12/02 07:28:12;;;;;;;191.80;81.53;;;6.80;99.90;;;;;;5053770;28;20143;-72
2021/12/02 07:30:39;;;;;;;208.83;90.53;;;6.80;99.90;;;;;;5054068;28;20025;-72
2021/12/02 07:33:09;;;;;;;201.57;86.25;;;6.90;99.90;;;;;;5053839;28;20505;-72
2021/12/02 07:35:35;;;;;;;202.45;94.68;;;7.00;99.90;;;;;;5053769;28;20048;-72
2021/12/02 07:38:03;;;;;;;232.52;105.30;;;7.10;99.90;;;;;;5054136;28;20464;-72
2021/12/02 07:40:36;;;;;;;259.90;119.82;;;7.30;99.90;;;;;;5053782;28;20143;-72
2021/12/02 07:43:02;;;;;;;262.08;120.22;;;7.40;99.90;;;;;;5053777;28;20025;-72
2021/12/02 07:45:31;;;;;;;269.75;120.85;;;7.50;99.90;;;;;;5052879;28;20025;-73
2021/12/02 07:47:58;;;;;;;260.95;115.07;;;7.60;99.90;;;;;;5053391;28;20021;-73
2021/12/02 07:50:24;;;;;;;248.95;113.82;;;7.70;99.90;;;;;;5053590;28;20051;-72
2021/12/02 07:52:53;;;;;;;223.77;104.30;;;7.80;99.90;;;;;;5053705;28;20025;-72
2021/12/02 07:55:20;;;;;;;213.57;95.47;;;7.90;99.90;;;;;;5053597;28;20039;-72
2021/12/02 07:57:47;;;;;;;199.63;95.13;;;8.00;99.90;;;;;;5053625;28;20379;-71
2021/12/02 08:00:25;;;;;;;170.40;72.57;;;8.00;99.90;;;;;;5053755;28;20432;-72
2021/12/02 08:02:53;;;;;;;218.75;97.50;;;8.10;99.90;;;;;;5053905;28;20020;-72
2021/12/02 08:05:23;;;;;;;177.07;82.75;;;8.20;99.90;;;;;;5053360;28;20025;-72
2021/12/02 08:07:49;;;;;;;170.15;78.68;;;8.20;99.90;;;;;;5053932;28;20116;-72
2021/12/02 08:10:16;;;;;;;193.73;91.18;;;8.30;99.90;;;;;;5053556;28;20029;-72
2021/12/02 08:12:47;;;;;;;185.10;90.63;;;8.40;99.90;;;;;;5053554;28;20032;-72
2021/12/02 08:15:14;;;;;;;201.10;98.80;;;8.50;99.90;;;;;;5053448;28;20032;-72
2021/12/02 08:17:40;;;;;;;218.35;98.75;;;8.50;99.90;;;;;;5053283;28;20017;-72
2021/12/02 08:20:06;;;;;;;304.80;126.05;;;8.60;99.90;;;;;;5053513;28;20028;-72
2021/12/02 08:22:32;;;;;;;251.25;96.82;;;8.70;99.90;;;;;;5053248;28;20025;-72
2021/12/02 08:24:58;;;;;;;158.82;71.00;;;8.80;99.90;;;;;;5053272;28;20032;-72
2021/12/02 08:27:24;;;;;;;126.30;59.55;;;9.00;99.90;;;;;;5053405;28;20071;-72
2021/12/02 08:29:51;;;;;;;107.25;48.50;;;9.30;99.90;;;;;;5053373;28;20400;-71
2021/12/02 08:32:17;;;;;;;198.05;66.45;;;9.60;99.90;;;;;;5053474;28;20029;-71
2021/12/02 08:34:42;;;;;;;493.10;158.77;;;9.90;99.90;;;;;;5053330;28;20368;-72
2021/12/02 08:37:10;;;;;;;402.88;153.50;;;10.00;99.90;;;;;;5052965;28;20021;-72
2021/12/02 08:39:36;;;;;;;345.08;146.70;;;10.20;99.90;;;;;;5053439;28;20029;-72
2021/12/02 08:42:03;;;;;;;123.10;58.20;;;10.50;99.90;;;;;;5053451;28;20513;-72
2021/12/02 08:44:31;;;;;;;88.88;40.00;;;10.70;99.90;;;;;;5053459;28;20025;-72
2021/12/02 08:46:57;;;;;;;48.83;24.73;;;10.90;99.90;;;;;;5053220;28;20021;-72
2021/12/02 08:49:23;;;;;;;52.70;26.67;;;11.20;99.90;;;;;;5053274;28;20025;-72
2021/12/02 08:51:51;;;;;;;66.55;33.40;;;11.50;99.90;;;;;;5052758;28;20032;-72
2021/12/02 08:54:17;;;;;;;69.05;33.13;;;11.80;99.90;;;;;;5052873;28;20029;-72
2021/12/02 08:56:43;;;;;;;115.00;51.97;;;12.10;99.90;;;;;;5054769;28;20483;-72
2021/12/02 08:59:09;;;;;;;83.93;38.70;;;12.10;99.90;;;;;;5056875;28;20028;-73
2021/12/02 09:01:36;;;;;;;75.45;34.67;;;12.30;99.90;;;;;;5056789;28;20048;-72
2021/12/02 09:04:02;;;;;;;81.68;36.70;;;12.60;99.90;;;;;;5056816;28;20025;-72
2021/12/02 09:06:30;;;;;;;97.78;46.40;;;12.90;99.90;;;;;;5056422;28;20078;-72
2021/12/02 09:08:58;;;;;;;96.50;48.00;;;13.10;99.90;;;;;;5056674;28;20013;-72
2021/12/02 09:11:25;;;;;;;62.50;34.78;;;13.30;99.90;;;;;;5056474;28;20108;-72
2021/12/02 09:13:56;;;;;;;24.88;12.20;;;13.30;99.90;;;;;;5056435;28;20021;-72
2021/12/02 09:16:22;;;;;;;21.63;10.50;;;13.50;99.90;;;;;;5056613;28;20078;-72
2021/12/02 09:18:48;;;;;;;26.70;12.07;;;13.50;99.90;;;;;;5056352;28;20096;-72
2021/12/02 09:21:13;;;;;;;30.58;15.73;;;13.50;99.90;;;;;;5056852;28;20333;-72
2021/12/02 09:23:39;;;;;;;36.45;16.73;;;13.40;99.90;;;;;;5055955;28;20033;-72
2021/12/02 09:26:05;;;;;;;36.88;16.83;;;13.30;99.90;;;;;;5055088;28;20029;-72
2021/12/02 09:28:32;;;;;;;60.80;28.13;;;13.10;99.90;;;;;;5056421;28;20514;-72
2021/12/02 09:30:58;;;;;;;52.80;24.80;;;13.10;99.90;;;;;;5056290;28;20032;-72
2021/12/02 09:33:24;;;;;;;23.30;12.07;;;13.00;99.90;;;;;;5055977;28;20025;-72
2021/12/02 09:35:49;;;;;;;23.17;11.35;;;13.00;99.90;;;;;;5055601;28;20029;-72
2021/12/02 09:38:16;;;;;;;28.83;13.75;;;13.10;99.90;;;;;;5055994;28;20120;-72
2021/12/02 09:40:42;;;;;;;21.90;10.95;;;13.10;99.90;;;;;;5055782;28;20077;-72
2021/12/02 09:43:11;;;;;;;20.40;11.00;;;13.20;99.90;;;;;;5055897;28;20371;-72
2021/12/02 09:45:38;;;;;;;90.03;37.95;;;13.90;99.90;;;;;;5055923;28;20031;-72
2021/12/02 09:48:05;;;;;;;85.90;40.35;;;14.20;99.90;;;;;;5055834;28;20017;-72
2021/12/02 09:50:34;;;;;;;363.02;171.15;;;14.50;99.90;;;;;;5055746;28;20029;-72
2021/12/02 09:53:14;;;;;;;47.58;27.92;;;15.00;99.90;;;;;;5055578;28;20112;-72
2021/12/02 09:58:16;;;;;;;39.88;21.52;;;14.90;99.90;;;;;;5055451;28;20101;-70
2021/12/02 10:00:47;;;;;;;44.13;23.50;;;14.70;99.90;;;;;;5055144;28;20025;-72
2021/12/02 10:03:21;;;;;;;41.72;20.90;;;14.90;99.90;;;;;;5055803;28;20376;-71
2021/12/02 10:05:54;;;;;;;41.20;19.67;;;14.90;99.90;;;;;;5055760;28;20033;-72
2021/12/02 10:08:25;;;;;;;40.35;21.25;;;14.80;99.90;;;;;;5054795;28;20029;-71
2021/12/02 10:10:57;;;;;;;34.83;18.63;;;14.50;99.90;;;;;;5055521;28;20368;-72
2021/12/02 10:13:31;;;;;;;32.50;16.67;;;14.40;99.90;;;;;;5055453;28;20029;-71
2021/12/02 10:16:20;;;;;;;39.22;20.02;;;14.40;99.90;;;;;;5055258;28;20103;-72
2021/12/02 10:19:27;;;;;;;41.25;23.40;;;14.50;99.90;;;;;;5055015;28;20067;-72
2021/12/02 10:21:48;;;;;;;47.30;24.40;;;15.10;99.90;;;;;;5054428;28;20065;-71
2021/12/02 10:24:17;;;;;;;85.68;37.90;;;15.00;99.90;;;;;;5055170;28;20047;-72
2021/12/02 10:27:07;;;;;;;106.43;47.28;;;15.00;99.90;;;;;;5054791;28;20017;-72
2021/12/02 10:29:38;;;;;;;20.30;9.45;;;14.90;99.90;;;;;;5054247;28;20040;-72
2021/12/02 10:32:10;;;;;;;19.23;7.47;;;14.90;99.90;;;;;;5054894;28;20062;-72
2021/12/02 10:34:45;;;;;;;9.30;4.13;;;14.90;99.90;;;;;;5055000;28;20025;-71
2021/12/02 10:37:11;;;;;;;18.85;9.85;;;14.90;99.90;;;;;;5054407;28;20367;-72
2021/12/02 10:39:37;;;;;;;14.25;7.78;;;14.80;99.90;;;;;;5054518;28;20024;-71
2021/12/02 10:42:08;;;;;;;14.27;6.60;;;14.80;99.90;;;;;;5055008;28;20094;-72
2021/12/02 10:44:36;;;;;;;7.75;4.22;;;14.80;99.90;;;;;;5055086;28;20025;-71
2021/12/02 10:47:11;;;;;;;10.18;4.80;;;14.70;99.90;;;;;;5054616;28;20025;-72
2021/12/02 10:49:41;;;;;;;7.95;4.50;;;14.70;99.90;;;;;;5054232;28;20020;-72
2021/12/02 10:52:11;;;;;;;20.70;10.27;;;14.70;99.90;;;;;;5054969;28;20028;-72
2021/12/02 10:54:41;;;;;;;39.05;16.38;;;14.70;99.90;;;;;;5054213;28;20360;-72
2021/12/02 10:57:21;;;;;;;13.27;6.15;;;14.70;99.90;;;;;;5054072;28;20017;-72
2021/12/02 11:00:17;;;;;;;47.28;21.42;;;14.70;99.90;;;;;;5054260;28;20044;-72
2021/12/02 11:02:49;;;;;;;38.13;16.30;;;14.80;99.90;;;;;;5031896;28;20569;-72
2021/12/02 11:05:31;;;;;;;38.63;17.25;;;14.70;99.90;;;;;;5031970;28;20053;-72
2021/12/02 11:08:05;;;;;;;137.63;57.28;;;14.70;99.90;;;;;;5032089;28;20032;-72
2021/12/02 11:10:39;;;;;;;62.13;28.08;;;14.70;99.90;;;;;;5031944;28;20086;-72
2021/12/02 11:13:06;;;;;;;53.65;26.77;;;14.70;99.90;;;;;;5032216;28;20049;-72
2021/12/02 11:15:36;;;;;;;59.95;29.65;;;14.70;99.90;;;;;;5031807;28;20022;-73
2021/12/02 11:18:05;;;;;;;44.08;18.60;;;14.60;99.90;;;;;;5031727;28;20047;-72
2021/12/02 11:20:34;;;;;;;29.15;13.50;;;14.60;99.90;;;;;;5031353;28;20037;-71
2021/12/02 11:23:07;;;;;;;37.25;18.33;;;14.50;99.90;;;;;;5031646;28;20041;-72
2021/12/02 11:25:36;;;;;;;46.35;21.40;;;14.40;99.90;;;;;;5031484;28;20148;-71
2021/12/02 11:28:09;;;;;;;102.38;55.60;;;14.50;99.90;;;;;;5031593;28;20053;-71
2021/12/02 11:30:38;;;;;;;90.38;44.55;;;14.40;99.90;;;;;;5031714;28;20188;-72
2021/12/02 11:33:06;;;;;;;194.20;104.53;;;14.50;99.90;;;;;;5031479;28;20037;-72
2021/12/02 11:35:40;;;;;;;42.88;22.02;;;14.50;99.90;;;;;;5031452;28;20451;-71
2021/12/02 11:38:17;;;;;;;70.25;34.05;;;14.50;99.90;;;;;;5033345;28;20061;-72
2021/12/02 11:40:49;;;;;;;81.55;36.65;;;14.50;99.90;;;;;;5053160;28;20056;-72
2021/12/02 11:43:18;;;;;;;53.80;27.52;;;14.50;99.90;;;;;;5053709;28;20064;-72
2021/12/02 11:45:49;;;;;;;61.97;33.55;;;14.50;99.90;;;;;;5053511;28;20032;-72
2021/12/02 11:48:21;;;;;;;47.70;25.87;;;14.50;99.90;;;;;;5053780;28;20156;-72
2021/12/02 11:50:50;;;;;;;74.10;39.10;;;14.50;99.90;;;;;;5053498;28;20459;-73
2021/12/02 11:53:21;;;;;;;66.07;32.60;;;14.50;99.90;;;;;;5053146;28;20530;-72
2021/12/02 11:55:52;;;;;;;70.18;33.53;;;14.50;99.90;;;;;;5053499;28;20024;-72
2021/12/02 11:58:18;;;;;;;74.82;37.28;;;14.40;99.90;;;;;;5053488;28;20025;-72
2021/12/02 12:00:44;;;;;;;72.00;37.67;;;14.40;99.90;;;;;;5053366;28;20066;-72
2021/12/02 12:03:26;;;;;;;66.53;31.20;;;14.40;99.90;;;;;;5053110;28;20116;-71
2021/12/02 12:05:55;;;;;;;77.00;37.07;;;14.40;99.90;;;;;;5053584;28;20036;-71
2021/12/02 12:08:39;;;;;;;88.38;41.85;;;14.40;99.90;;;;;;5053545;28;20025;-72
2021/12/02 12:11:24;;;;;;;85.65;42.33;;;14.40;99.90;;;;;;5053180;28;20023;-72
2021/12/02 12:14:03;;;;;;;91.38;46.47;;;14.50;99.90;;;;;;5053342;28;20075;-72
2021/12/02 12:16:47;;;;;;;89.47;45.15;;;14.60;99.90;;;;;;5053766;28;20021;-72
2021/12/02 12:19:17;;;;;;;80.93;44.63;;;14.70;99.90;;;;;;5053128;28;20036;-71
2021/12/02 12:21:50;;;;;;;72.30;38.28;;;14.70;99.90;;;;;;5053110;28;20121;-72
2021/12/02 12:24:17;;;;;;;75.63;40.72;;;14.70;99.90;;;;;;5053046;28;20021;-72
2021/12/02 12:26:45;;;;;;;69.30;37.53;;;14.60;99.90;;;;;;5053121;28;20029;-72
2021/12/02 12:29:13;;;;;;;72.07;37.03;;;14.60;99.90;;;;;;5052668;28;20025;-71
2021/12/02 12:31:55;;;;;;;75.97;38.85;;;14.60;99.90;;;;;;5054559;28;20421;-71
2021/12/02 12:34:31;;;;;;;94.15;43.78;;;14.60;99.90;;;;;;5056946;28;20040;-72
2021/12/02 12:36:59;;;;;;;75.50;34.85;;;14.60;99.90;;;;;;5056944;28;20456;-71
2021/12/02 12:39:33;;;;;;;88.18;41.75;;;14.60;99.90;;;;;;5056630;28;20021;-72
2021/12/02 12:42:15;;;;;;;54.08;25.73;;;14.60;99.90;;;;;;5056488;28;20072;-71
2021/12/02 12:44:54;;;;;;;171.25;82.47;;;14.60;99.90;;;;;;5057040;28;20104;-72
2021/12/02 12:47:40;;;;;;;110.40;50.60;;;14.60;99.90;;;;;;5057024;28;20036;-72
2021/12/02 12:50:39;;;;;;;233.45;109.65;;;14.50;99.90;;;;;;5056505;28;20018;-72
2021/12/02 12:53:06;;;;;;;126.75;69.30;;;14.50;99.90;;;;;;5034436;28;20120;-71